createdAt,value
2023-04-08T00:00:20.522Z,41.51
2023-04-08T00:01:20.580Z,42.03
2023-04-08T00:02:20.726Z,43.52
2023-04-08T00:03:20.827Z,43.55
2023-04-08T00:04:20.837Z,45.52
2023-04-08T00:05:20.789Z,41.15
2023-04-08T00:06:20.818Z,40.53
2023-04-08T00:07:20.879Z,44.88
2023-04-08T00:08:20.926Z,42.31
2023-04-08T00:09:21.004Z,45.49
2023-04-08T00:10:21.031Z,46.54
2023-04-08T00:11:21.097Z,49.38
2023-04-08T00:12:21.137Z,46.11
2023-04-08T00:13:21.211Z,49.56
2023-04-08T00:14:21.255Z,48.27
2023-04-08T00:15:21.313Z,47.57
2023-04-08T00:16:21.367Z,47.77
2023-04-08T00:17:21.322Z,48.60
2023-04-08T00:18:21.320Z,49.31
2023-04-08T00:19:21.317Z,50.61
2023-04-08T00:20:21.319Z,51.73
2023-04-08T00:21:21.345Z,53.61
2023-04-08T00:22:21.320Z,54.54
2023-04-08T00:23:21.359Z,48.96
2023-04-08T00:24:21.340Z,52.74
2023-04-08T00:25:22.999Z,56.00
2023-04-08T00:26:21.379Z,60.31
2023-04-08T00:27:21.361Z,56.04
2023-04-08T00:28:21.327Z,53.59
2023-04-08T00:29:21.337Z,59.48
2023-04-08T00:30:21.354Z,58.00
2023-04-08T00:31:21.571Z,59.01
2023-04-08T00:32:21.375Z,58.80
2023-04-08T00:33:21.352Z,60.99
2023-04-08T00:34:21.341Z,60.63
2023-04-08T00:35:21.383Z,60.72
2023-04-08T00:36:21.336Z,62.31
2023-04-08T00:37:21.343Z,62.34
2023-04-08T00:38:21.334Z,62.90
2023-04-08T00:39:21.339Z,65.08
2023-04-08T00:40:21.348Z,65.33
2023-04-08T00:41:21.358Z,61.91
2023-04-08T00:42:21.358Z,63.27
2023-04-08T00:43:21.376Z,63.60
2023-04-08T00:44:21.359Z,63.53
2023-04-08T00:45:21.358Z,66.54
2023-04-08T00:46:21.422Z,62.31
2023-04-08T00:47:21.393Z,60.49
2023-04-08T00:48:21.345Z,64.53
2023-04-08T00:49:21.362Z,61.43
2023-04-08T00:50:21.390Z,64.05
2023-04-08T00:51:21.363Z,60.56
2023-04-08T00:52:21.377Z,62.77
2023-04-08T00:53:21.378Z,61.08
2023-04-08T00:54:21.372Z,58.44
2023-04-08T00:55:21.395Z,63.13
2023-04-08T00:56:21.374Z,63.47
2023-04-08T00:57:21.382Z,60.35
2023-04-08T00:58:21.353Z,59.23
2023-04-08T00:59:21.365Z,64.23
2023-04-08T01:00:21.364Z,61.52
2023-04-08T01:01:21.380Z,58.93
2023-04-08T01:02:21.504Z,58.19
2023-04-08T01:03:21.531Z,54.73
2023-04-08T01:04:21.613Z,56.80
2023-04-08T01:05:21.529Z,57.31
2023-04-08T01:06:21.580Z,60.48
2023-04-08T01:07:21.642Z,57.88
2023-04-08T01:08:21.681Z,55.25
2023-04-08T01:09:21.732Z,59.14
2023-04-08T01:10:21.779Z,55.98
2023-04-08T01:11:21.827Z,53.90
2023-04-08T01:12:21.885Z,56.91
2023-04-08T01:13:21.933Z,53.38
2023-04-08T01:14:21.993Z,53.08
2023-04-08T01:15:22.079Z,55.08
2023-04-08T01:16:22.122Z,56.85
2023-04-08T01:17:22.230Z,51.61
2023-04-08T01:18:22.200Z,54.63
2023-04-08T01:19:22.250Z,55.13
2023-04-08T01:20:22.317Z,55.22
2023-04-08T01:21:22.397Z,54.52
2023-04-08T01:22:22.426Z,55.23
2023-04-08T01:23:22.481Z,55.48
2023-04-08T01:24:22.556Z,54.02
2023-04-08T01:25:22.559Z,52.48
2023-04-08T01:26:22.568Z,51.31
2023-04-08T01:27:22.563Z,51.51
2023-04-08T01:28:22.556Z,55.00
2023-04-08T01:29:22.553Z,54.16
2023-04-08T01:30:22.554Z,54.27
2023-04-08T01:31:22.672Z,50.40
2023-04-08T01:32:22.591Z,49.99
2023-04-08T01:33:22.575Z,49.71
2023-04-08T01:34:22.573Z,49.19
2023-04-08T01:35:22.638Z,48.12
2023-04-08T01:36:22.579Z,48.15
2023-04-08T01:37:22.644Z,48.04
2023-04-08T01:38:22.711Z,47.04
2023-04-08T01:39:22.759Z,47.63
2023-04-08T01:40:22.762Z,47.76
2023-04-08T01:41:22.763Z,46.40
2023-04-08T01:42:22.758Z,46.31
2023-04-08T01:43:22.755Z,47.85
2023-04-08T01:44:22.762Z,48.01
2023-04-08T01:45:22.775Z,43.71
2023-04-08T01:46:22.892Z,45.11
2023-04-08T01:47:22.827Z,44.18
2023-04-08T01:48:22.793Z,45.99
2023-04-08T01:49:22.802Z,45.62
2023-04-08T01:50:22.807Z,48.76
2023-04-08T01:51:22.809Z,44.15
2023-04-08T01:52:22.870Z,45.98
2023-04-08T01:53:22.953Z,41.06
2023-04-08T01:54:22.976Z,44.87
2023-04-08T01:55:23.044Z,43.12
2023-04-08T01:56:23.055Z,43.26
2023-04-08T01:57:23.052Z,43.40
2023-04-08T01:58:23.101Z,44.30
2023-04-08T01:59:23.067Z,45.57
2023-04-08T02:00:23.098Z,46.92
2023-04-08T02:01:23.136Z,47.02
2023-04-08T02:02:23.217Z,46.90
2023-04-08T02:03:23.388Z,43.70
2023-04-08T02:04:23.131Z,46.38
2023-04-08T02:05:23.138Z,46.25
2023-04-08T02:06:23.136Z,46.82
2023-04-08T02:07:23.149Z,46.34
2023-04-08T02:08:23.180Z,49.07
2023-04-08T02:09:23.240Z,49.19
2023-04-08T02:10:23.285Z,45.92
2023-04-08T02:11:23.350Z,49.25
2023-04-08T02:12:23.386Z,49.31
2023-04-08T02:13:23.401Z,49.96
2023-04-08T02:14:23.392Z,49.81
2023-04-08T02:15:23.393Z,46.72
2023-04-08T02:16:23.492Z,50.65
2023-04-08T02:17:23.404Z,46.52
2023-04-08T02:18:23.394Z,47.93
2023-04-08T02:19:23.433Z,51.52
2023-04-08T02:20:23.392Z,50.01
2023-04-08T02:21:23.400Z,49.80
2023-04-08T02:22:23.402Z,46.56
2023-04-08T02:23:23.436Z,49.03
2023-04-08T02:24:23.507Z,52.04
2023-04-08T02:25:23.593Z,51.63
2023-04-08T02:26:23.615Z,53.56
2023-04-08T02:27:23.704Z,51.20
2023-04-08T02:28:23.742Z,50.16
2023-04-08T02:29:23.797Z,51.45
2023-04-08T02:30:23.857Z,54.25
2023-04-08T02:31:23.974Z,56.76
2023-04-08T02:32:23.971Z,58.14
2023-04-08T02:33:24.039Z,56.64
2023-04-08T02:34:24.107Z,56.51
2023-04-08T02:35:24.238Z,57.97
2023-04-08T02:36:24.231Z,57.91
2023-04-08T02:37:24.274Z,57.78
2023-04-08T02:38:24.491Z,60.10
2023-04-08T02:39:24.379Z,60.22
2023-04-08T02:40:24.451Z,58.08
2023-04-08T02:41:24.508Z,60.95
2023-04-08T02:42:24.563Z,62.87
2023-04-08T02:43:24.630Z,61.91
2023-04-08T02:44:24.702Z,63.14
2023-04-08T02:45:24.759Z,63.04
2023-04-08T02:46:24.803Z,62.23
2023-04-08T02:47:24.910Z,64.73
2023-04-08T02:48:24.937Z,62.19
2023-04-08T02:49:25.009Z,64.58
2023-04-08T02:50:25.083Z,62.91
2023-04-08T02:51:25.155Z,61.25
2023-04-08T02:52:25.244Z,63.47
2023-04-08T02:53:25.301Z,66.70
2023-04-08T02:54:25.401Z,64.19
2023-04-08T02:55:25.470Z,69.48
2023-04-08T02:56:25.538Z,68.97
2023-04-08T02:57:25.625Z,68.42
2023-04-08T02:58:25.709Z,65.88
2023-04-08T02:59:25.765Z,71.88
2023-04-08T03:00:25.818Z,71.84
2023-04-08T03:01:25.963Z,75.03
2023-04-08T03:02:26.080Z,73.82
2023-04-08T03:03:26.115Z,75.60
2023-04-08T03:04:26.128Z,73.74
2023-04-08T03:05:26.201Z,75.71
2023-04-08T03:06:26.263Z,73.43
2023-04-08T03:07:26.436Z,77.68
2023-04-08T03:08:26.407Z,77.23
2023-04-08T03:09:26.485Z,79.23
2023-04-08T03:10:26.548Z,78.36
2023-04-08T03:11:26.639Z,80.92
2023-04-08T03:12:26.690Z,82.51
2023-04-08T03:13:27.159Z,86.67
2023-04-08T03:14:26.760Z,83.76
2023-04-08T03:15:26.827Z,85.78
2023-04-08T03:16:26.913Z,82.85
2023-04-08T03:17:26.990Z,85.10
2023-04-08T03:18:26.942Z,86.37
2023-04-08T03:19:27.014Z,83.70
2023-04-08T03:20:27.070Z,85.51
2023-04-08T03:21:27.120Z,87.34
2023-04-08T03:22:27.144Z,86.40
2023-04-08T03:23:27.171Z,82.96
2023-04-08T03:24:27.179Z,87.05
2023-04-08T03:25:27.224Z,88.55
2023-04-08T03:26:27.289Z,88.64
2023-04-08T03:27:27.352Z,89.86
2023-04-08T03:28:27.425Z,92.74
2023-04-08T03:29:27.494Z,90.39
2023-04-08T03:30:27.565Z,92.24
2023-04-08T03:31:27.642Z,91.73
2023-04-08T03:32:27.709Z,90.92
2023-04-08T03:33:27.753Z,91.43
2023-04-08T03:34:27.828Z,94.79
2023-04-08T03:35:27.906Z,95.03
2023-04-08T03:36:27.967Z,96.52
2023-04-08T03:37:28.064Z,97.09
2023-04-08T03:38:28.128Z,94.96
2023-04-08T03:39:28.224Z,94.68
2023-04-08T03:40:28.267Z,95.55
2023-04-08T03:41:28.270Z,95.67
2023-04-08T03:42:28.269Z,95.56
2023-04-08T03:43:28.288Z,96.55
2023-04-08T03:44:28.292Z,98.99
2023-04-08T03:45:28.291Z,101.58
2023-04-08T03:46:28.359Z,100.86
2023-04-08T03:47:28.324Z,99.53
2023-04-08T03:48:28.311Z,96.82
2023-04-08T03:49:28.310Z,98.52
2023-04-08T03:50:28.357Z,98.99
2023-04-08T03:51:28.459Z,96.89
2023-04-08T03:52:28.526Z,97.23
2023-04-08T03:53:28.592Z,96.36
2023-04-08T03:54:28.667Z,97.56
2023-04-08T03:55:28.717Z,96.85
2023-04-08T03:56:28.800Z,95.25
2023-04-08T03:57:28.870Z,95.89
2023-04-08T03:58:28.950Z,97.32
2023-04-08T03:59:29.005Z,96.30
2023-04-08T04:00:29.042Z,95.46
2023-04-08T04:01:29.101Z,94.51
2023-04-08T04:02:29.283Z,98.00
2023-04-08T04:03:29.333Z,97.32
2023-04-08T04:04:29.475Z,97.85
2023-04-08T04:05:29.352Z,98.10
2023-04-08T04:06:29.431Z,95.41
2023-04-08T04:07:29.510Z,96.25
2023-04-08T04:08:29.567Z,96.85
2023-04-08T04:09:29.637Z,98.50
2023-04-08T04:10:29.705Z,94.68
2023-04-08T04:11:29.781Z,92.55
2023-04-08T04:12:29.846Z,93.39
2023-04-08T04:13:29.920Z,94.46
2023-04-08T04:14:29.982Z,96.03
2023-04-08T04:15:30.091Z,94.23
2023-04-08T04:16:32.701Z,95.26
2023-04-08T04:17:30.130Z,92.49
2023-04-08T04:18:30.168Z,93.21
2023-04-08T04:19:30.132Z,96.65
2023-04-08T04:20:30.139Z,93.42
2023-04-08T04:21:30.170Z,92.55
2023-04-08T04:22:30.180Z,94.33
2023-04-08T04:23:30.160Z,91.93
2023-04-08T04:24:30.170Z,93.64
2023-04-08T04:25:30.171Z,95.84
2023-04-08T04:26:30.174Z,95.60
2023-04-08T04:27:30.180Z,95.99
2023-04-08T04:28:30.190Z,96.11
2023-04-08T04:29:30.200Z,93.75
2023-04-08T04:30:30.206Z,93.96
2023-04-08T04:31:30.210Z,92.71
2023-04-08T04:32:30.257Z,94.59
2023-04-08T04:33:30.208Z,93.13
2023-04-08T04:34:30.213Z,96.63
2023-04-08T04:35:30.273Z,95.35
2023-04-08T04:36:30.228Z,95.65
2023-04-08T04:37:30.223Z,97.22
2023-04-08T04:38:30.227Z,98.73
2023-04-08T04:39:30.231Z,99.04
2023-04-08T04:40:30.251Z,94.74
2023-04-08T04:41:30.231Z,99.27
2023-04-08T04:42:30.236Z,100.83
2023-04-08T04:43:30.276Z,96.86
2023-04-08T04:44:30.236Z,98.67
2023-04-08T04:45:30.255Z,100.38
2023-04-08T04:46:30.342Z,101.49
2023-04-08T04:47:30.290Z,103.32
2023-04-08T04:48:30.249Z,100.83
2023-04-08T04:49:30.254Z,105.04
2023-04-08T04:50:30.255Z,105.05
2023-04-08T04:51:30.277Z,102.52
2023-04-08T04:52:30.253Z,105.64
2023-04-08T04:53:30.254Z,103.09
2023-04-08T04:54:30.259Z,103.82
2023-04-08T04:55:30.255Z,105.01
2023-04-08T04:56:30.257Z,107.72
2023-04-08T04:57:30.264Z,107.02
2023-04-08T04:58:30.293Z,107.16
2023-04-08T04:59:30.261Z,105.32
2023-04-08T05:00:30.296Z,105.12
2023-04-08T05:01:30.423Z,102.94
2023-04-08T05:02:30.471Z,99.96
2023-04-08T05:03:30.429Z,100.13
2023-04-08T05:04:30.464Z,100.16
2023-04-08T05:05:30.389Z,98.45
2023-04-08T05:06:30.391Z,98.63
2023-04-08T05:07:30.379Z,99.60
2023-04-08T05:08:30.394Z,96.47
2023-04-08T05:09:30.391Z,95.64
2023-04-08T05:10:30.397Z,97.29
2023-04-08T05:11:30.395Z,95.56
2023-04-08T05:12:30.398Z,93.70
2023-04-08T05:13:30.470Z,97.88
2023-04-08T05:14:30.538Z,99.02
2023-04-08T05:15:30.574Z,99.98
2023-04-08T05:16:30.662Z,101.09
2023-04-08T05:17:30.731Z,98.56
2023-04-08T05:18:30.733Z,99.59
2023-04-08T05:19:30.796Z,99.99
2023-04-08T05:20:30.828Z,100.96
2023-04-08T05:21:30.869Z,96.82
2023-04-08T05:22:30.929Z,99.60
2023-04-08T05:23:31.011Z,99.29
2023-04-08T05:24:31.080Z,100.30
2023-04-08T05:25:31.163Z,99.94
2023-04-08T05:26:31.184Z,100.00
2023-04-08T05:27:31.166Z,100.22
2023-04-08T05:28:31.180Z,101.54
2023-04-08T05:29:31.189Z,101.07
2023-04-08T05:30:31.197Z,103.13
2023-04-08T05:31:31.253Z,104.64
2023-04-08T05:32:31.230Z,101.33
2023-04-08T05:33:31.225Z,103.06
2023-04-08T05:34:31.218Z,105.57
2023-04-08T05:35:31.278Z,106.15
2023-04-08T05:36:31.349Z,107.76
2023-04-08T05:37:31.417Z,105.54
2023-04-08T05:38:31.504Z,105.32
2023-04-08T05:39:31.577Z,103.09
2023-04-08T05:40:31.651Z,102.86
2023-04-08T05:41:31.718Z,104.85
2023-04-08T05:42:31.791Z,103.31
2023-04-08T05:43:31.945Z,105.34
2023-04-08T05:44:31.981Z,105.17
2023-04-08T05:45:32.071Z,103.69
2023-04-08T05:46:32.176Z,102.90
2023-04-08T05:47:32.205Z,101.20
2023-04-08T05:48:32.208Z,101.74
2023-04-08T05:49:32.281Z,99.97
2023-04-08T05:50:32.353Z,99.98
2023-04-08T05:51:32.415Z,99.90
2023-04-08T05:52:32.493Z,99.32
2023-04-08T05:53:32.572Z,100.67
2023-04-08T05:54:32.664Z,95.13
2023-04-08T05:55:32.729Z,95.50
2023-04-08T05:56:32.830Z,93.11
2023-04-08T05:57:32.879Z,95.67
2023-04-08T05:58:32.952Z,95.78
2023-04-08T05:59:32.984Z,94.17
2023-04-08T06:00:33.058Z,91.03
2023-04-08T06:01:33.143Z,90.10
2023-04-08T06:02:33.327Z,91.11
2023-04-08T06:03:33.429Z,88.16
2023-04-08T06:04:33.399Z,91.54
2023-04-08T06:05:33.348Z,86.25
2023-04-08T06:06:33.431Z,88.27
2023-04-08T06:07:33.521Z,87.89
2023-04-08T06:08:33.588Z,88.10
2023-04-08T06:09:33.658Z,84.62
2023-04-08T06:10:33.746Z,83.83
2023-04-08T06:11:33.841Z,83.44
2023-04-08T06:12:33.871Z,84.19
2023-04-08T06:13:33.965Z,83.08
2023-04-08T06:14:34.018Z,83.02
2023-04-08T06:15:34.081Z,80.54
2023-04-08T06:16:34.235Z,77.90
2023-04-08T06:17:34.256Z,79.76
2023-04-08T06:18:34.306Z,75.95
2023-04-08T06:19:34.387Z,77.02
2023-04-08T06:20:34.446Z,77.67
2023-04-08T06:21:34.513Z,80.24
2023-04-08T06:22:34.587Z,80.26
2023-04-08T06:23:34.668Z,78.93
2023-04-08T06:24:34.739Z,76.14
2023-04-08T06:25:34.807Z,78.36
2023-04-08T06:26:34.906Z,78.84
2023-04-08T06:27:34.971Z,76.53
2023-04-08T06:28:35.039Z,78.63
2023-04-08T06:29:35.106Z,80.82
2023-04-08T06:30:35.183Z,79.49
2023-04-08T06:31:35.281Z,75.56
2023-04-08T06:32:35.358Z,77.37
2023-04-08T06:33:35.379Z,79.75
2023-04-08T06:34:35.457Z,77.03
2023-04-08T06:35:35.543Z,76.45
2023-04-08T06:36:35.601Z,76.33
2023-04-08T06:37:35.676Z,77.16
2023-04-08T06:38:35.747Z,79.00
2023-04-08T06:39:35.825Z,73.01
2023-04-08T06:40:35.969Z,75.60
2023-04-08T06:41:35.988Z,75.92
2023-04-08T06:42:36.071Z,75.16
2023-04-08T06:43:36.137Z,73.23
2023-04-08T06:44:36.223Z,72.80
2023-04-08T06:45:36.300Z,72.84
2023-04-08T06:46:36.366Z,70.87
2023-04-08T06:47:36.481Z,73.95
2023-04-08T06:48:36.518Z,71.82
2023-04-08T06:49:36.590Z,74.14
2023-04-08T06:50:36.658Z,78.06
2023-04-08T06:51:36.745Z,78.39
2023-04-08T06:52:36.821Z,80.71
2023-04-08T06:53:36.904Z,79.63
2023-04-08T06:54:36.986Z,88.56
2023-04-08T06:55:37.056Z,92.12
2023-04-08T06:56:37.413Z,94.65
2023-04-08T06:57:37.213Z,94.05
2023-04-08T06:58:37.257Z,97.94
2023-04-08T06:59:37.324Z,101.65
2023-04-08T07:00:37.383Z,103.09
2023-04-08T07:01:37.525Z,105.85
2023-04-08T07:02:37.760Z,110.36
2023-04-08T07:03:37.785Z,112.76
2023-04-08T07:04:37.674Z,118.44
2023-04-08T07:05:37.742Z,118.24
2023-04-08T07:06:37.811Z,118.84
2023-04-08T07:07:37.902Z,122.70
2023-04-08T07:08:37.964Z,123.57
2023-04-08T07:09:38.051Z,122.98
2023-04-08T07:10:38.117Z,128.07
2023-04-08T07:11:38.211Z,133.14
2023-04-08T07:12:38.252Z,133.03
2023-04-08T07:13:38.281Z,135.15
2023-04-08T07:14:38.746Z,136.55
2023-04-08T07:15:38.394Z,138.10
2023-04-08T07:16:38.533Z,139.60
2023-04-08T07:17:38.557Z,139.21
2023-04-08T07:18:38.572Z,138.96
2023-04-08T07:19:38.638Z,140.38
2023-04-08T07:20:38.716Z,144.43
2023-04-08T07:21:38.703Z,144.54
2023-04-08T07:22:38.709Z,145.09
2023-04-08T07:23:38.708Z,145.73
2023-04-08T07:24:38.718Z,147.13
2023-04-08T07:25:38.764Z,150.80
2023-04-08T07:26:38.778Z,148.48
2023-04-08T07:27:38.716Z,153.44
2023-04-08T07:28:38.719Z,149.60
2023-04-08T07:29:38.726Z,155.42
2023-04-08T07:30:38.758Z,154.92
2023-04-08T07:31:38.743Z,156.04
2023-04-08T07:32:38.824Z,159.58
2023-04-08T07:33:38.768Z,156.92
2023-04-08T07:34:38.821Z,159.26
2023-04-08T07:35:38.916Z,160.55
2023-04-08T07:36:38.942Z,165.06
2023-04-08T07:37:39.014Z,161.21
2023-04-08T07:38:39.078Z,163.18
2023-04-08T07:39:39.152Z,167.09
2023-04-08T07:40:39.199Z,162.75
2023-04-08T07:41:39.263Z,165.15
2023-04-08T07:42:40.826Z,165.00
2023-04-08T07:43:39.368Z,167.26
2023-04-08T07:44:39.430Z,167.08
2023-04-08T07:45:39.476Z,166.34
2023-04-08T07:46:39.684Z,166.24
2023-04-08T07:47:39.607Z,166.20
2023-04-08T07:48:39.652Z,168.93
2023-04-08T07:49:39.707Z,167.11
2023-04-08T07:51:08.141Z,168.63
2023-04-08T07:51:40.768Z,168.74
2023-04-08T07:52:39.770Z,168.54
2023-04-08T07:53:39.788Z,169.85
2023-04-08T07:54:39.783Z,170.55
2023-04-08T07:55:39.799Z,168.03
2023-04-08T07:56:39.802Z,167.51
2023-04-08T07:57:39.824Z,165.95
2023-04-08T07:58:39.826Z,160.37
2023-04-08T07:59:39.827Z,157.99
2023-04-08T08:00:39.838Z,154.84
2023-04-08T08:01:39.915Z,149.26
2023-04-08T08:02:39.946Z,145.86
2023-04-08T08:03:40.018Z,142.54
2023-04-08T08:04:40.081Z,138.64
2023-04-08T08:05:39.916Z,135.80
2023-04-08T08:06:39.977Z,132.83
2023-04-08T08:07:40.029Z,126.92
2023-04-08T08:08:40.079Z,125.31
2023-04-08T08:09:40.135Z,122.29
2023-04-08T08:10:40.205Z,119.46
2023-04-08T08:11:40.264Z,116.52
2023-04-08T08:12:40.311Z,114.89
2023-04-08T08:13:40.377Z,115.71
2023-04-08T08:14:40.441Z,114.71
2023-04-08T08:15:40.576Z,106.50
2023-04-08T08:16:40.543Z,106.98
2023-04-08T08:17:40.607Z,105.96
2023-04-08T08:18:40.800Z,103.75
2023-04-08T08:19:40.691Z,102.57
2023-04-08T08:20:40.721Z,99.59
2023-04-08T08:21:40.798Z,99.21
2023-04-08T08:22:54.263Z,100.96
2023-04-08T08:23:41.829Z,99.24
2023-04-08T08:24:40.839Z,99.16
2023-04-08T08:25:40.837Z,98.93
2023-04-08T08:26:40.837Z,92.39
2023-04-08T08:27:40.841Z,88.77
2023-04-08T08:28:40.838Z,87.25
2023-04-08T08:29:40.847Z,86.11
2023-04-08T08:30:40.874Z,85.47
2023-04-08T08:31:40.876Z,86.13
2023-04-08T08:32:40.873Z,86.01
2023-04-08T08:33:40.852Z,83.76
2023-04-08T08:34:40.846Z,79.52
2023-04-08T08:35:40.868Z,76.65
2023-04-08T08:36:40.851Z,76.79
2023-04-08T08:37:40.855Z,77.78
2023-04-08T08:38:40.859Z,77.33
2023-04-08T08:39:40.868Z,77.72
2023-04-08T08:40:40.858Z,74.10
2023-04-08T08:41:40.871Z,72.57
2023-04-08T08:42:40.852Z,68.59
2023-04-08T08:43:40.843Z,67.31
2023-04-08T08:44:40.835Z,66.60
2023-04-08T08:45:40.848Z,65.04
2023-04-08T08:46:40.900Z,66.90
2023-04-08T08:47:40.967Z,69.50
2023-04-08T08:48:41.003Z,66.33
2023-04-08T08:49:41.018Z,66.13
2023-04-08T08:50:41.077Z,66.32
2023-04-08T08:51:41.101Z,63.81
2023-04-08T08:52:41.159Z,64.29
2023-04-08T08:53:41.186Z,62.30
2023-04-08T08:54:41.233Z,63.28
2023-04-08T08:56:41.319Z,58.52
2023-04-08T08:57:41.297Z,58.56
2023-04-08T08:58:41.303Z,58.87
2023-04-08T08:59:41.302Z,58.74
2023-04-08T09:00:41.388Z,57.96
2023-04-08T09:01:41.490Z,57.25
2023-04-08T09:02:41.470Z,56.71
2023-04-08T09:03:41.579Z,53.66
2023-04-08T09:04:41.478Z,53.59
2023-04-08T09:05:41.413Z,52.70
2023-04-08T09:06:41.349Z,50.27
2023-04-08T09:07:41.359Z,53.08
2023-04-08T09:08:41.352Z,48.78
2023-04-08T09:09:41.360Z,50.15
2023-04-08T09:10:41.406Z,50.55
2023-04-08T09:11:41.385Z,48.17
2023-04-08T09:12:41.361Z,47.75
2023-04-08T09:13:41.376Z,48.53
2023-04-08T09:14:41.379Z,45.60
2023-04-08T09:15:41.381Z,45.46
2023-04-08T09:16:41.415Z,45.10
2023-04-08T09:17:41.518Z,43.27
2023-04-08T09:18:41.412Z,44.23
2023-04-08T09:19:41.441Z,45.99
2023-04-08T09:20:41.446Z,40.49
2023-04-08T09:21:41.532Z,32.73
2023-04-08T09:22:41.497Z,32.28
2023-04-08T09:23:41.518Z,35.42
2023-04-08T09:24:41.533Z,30.90
2023-04-08T09:25:41.554Z,25.62
2023-04-08T09:26:41.590Z,34.32
2023-04-08T09:27:41.603Z,34.14
2023-04-08T09:28:41.610Z,30.83
2023-04-08T09:29:41.620Z,28.25
2023-04-08T09:30:41.629Z,27.38
2023-04-08T09:31:41.762Z,25.80
2023-04-08T09:32:41.688Z,32.73
2023-04-08T09:33:41.643Z,26.37
2023-04-08T09:34:41.643Z,34.19
2023-04-08T09:35:41.683Z,29.93
2023-04-08T09:36:41.663Z,32.57
2023-04-08T09:37:41.691Z,28.88
2023-04-08T09:38:41.727Z,30.68
2023-04-08T09:39:41.735Z,30.21
2023-04-08T09:40:41.750Z,29.15
2023-04-08T09:41:41.825Z,33.24
2023-04-08T09:42:41.845Z,30.28
2023-04-08T09:43:41.897Z,42.52
2023-04-08T09:44:41.964Z,27.90
2023-04-08T09:45:42.036Z,38.36
2023-04-08T09:46:42.022Z,29.25
2023-04-08T09:47:42.069Z,29.21
2023-04-08T09:48:42.037Z,29.26
2023-04-08T09:49:42.061Z,25.80
2023-04-08T09:50:42.079Z,25.04
2023-04-08T09:51:42.097Z,27.97
2023-04-08T09:52:42.143Z,32.66
2023-04-08T09:53:42.169Z,28.48
2023-04-08T09:54:42.203Z,31.09
2023-04-08T09:55:42.241Z,36.10
2023-04-08T09:56:42.308Z,30.37
2023-04-08T09:57:42.384Z,25.00
2023-04-08T09:58:42.420Z,33.92
2023-04-08T09:59:42.483Z,29.30
2023-04-08T10:00:42.612Z,30.69
2023-04-08T10:01:42.722Z,25.00
2023-04-08T10:02:42.773Z,29.64
2023-04-08T10:03:42.759Z,34.01
2023-04-08T10:04:42.798Z,30.88
2023-04-08T10:05:42.798Z,30.29
2023-04-08T10:06:42.877Z,27.54
2023-04-08T10:07:42.945Z,31.63
2023-04-08T10:08:43.015Z,26.33
2023-04-08T10:09:43.110Z,36.47
2023-04-08T10:10:43.136Z,28.06
2023-04-08T10:11:43.189Z,38.38
2023-04-08T10:12:43.228Z,40.62
2023-04-08T10:13:43.285Z,35.53
2023-04-08T10:14:43.323Z,32.22
2023-04-08T10:15:43.436Z,35.31
2023-04-08T10:16:43.488Z,40.26
2023-04-08T10:17:43.496Z,37.84
2023-04-08T10:18:43.470Z,34.45
2023-04-08T10:19:43.503Z,31.97
2023-04-08T10:20:43.528Z,32.19
2023-04-08T10:21:43.511Z,32.88
2023-04-08T10:22:43.512Z,32.83
2023-04-08T10:23:43.513Z,32.18
2023-04-08T10:24:43.513Z,21.98
2023-04-08T10:25:43.501Z,30.24
2023-04-08T10:26:43.557Z,38.72
2023-04-08T10:27:43.481Z,29.28
2023-04-08T10:28:43.483Z,26.57
2023-04-08T10:29:43.504Z,31.28
2023-04-08T10:30:43.510Z,32.60
2023-04-08T10:31:43.495Z,25.00
2023-04-08T10:32:43.476Z,27.22
2023-04-08T10:33:43.467Z,36.45
2023-04-08T10:34:43.460Z,29.24
2023-04-08T10:35:43.487Z,28.48
2023-04-08T10:36:43.499Z,28.14
2023-04-08T10:37:43.538Z,32.03
2023-04-08T10:38:43.621Z,37.68
2023-04-08T10:39:43.610Z,27.99
2023-04-08T10:40:43.641Z,25.96
2023-04-08T10:41:43.678Z,30.96
2023-04-08T10:42:43.743Z,28.43
2023-04-08T10:43:43.785Z,27.50
2023-04-08T10:44:43.819Z,35.49
2023-04-08T10:45:45.170Z,25.00
2023-04-08T10:46:44.162Z,38.88
2023-04-08T10:47:44.218Z,40.15
2023-04-08T10:48:44.282Z,32.84
2023-04-08T10:49:44.337Z,30.25
2023-04-08T10:50:44.351Z,33.51
2023-04-08T10:51:44.411Z,32.13
2023-04-08T10:52:44.449Z,35.03
2023-04-08T10:53:44.494Z,34.82
2023-04-08T10:54:44.524Z,30.76
2023-04-08T10:55:44.512Z,30.82
2023-04-08T10:56:44.518Z,30.95
2023-04-08T10:57:44.516Z,27.92
2023-04-08T10:58:44.519Z,30.82
2023-04-08T10:59:44.519Z,26.41
2023-04-08T11:00:44.528Z,27.39
2023-04-08T11:01:44.623Z,23.92
2023-04-08T11:02:44.734Z,34.85
2023-04-08T11:03:44.624Z,38.92
2023-04-08T11:04:44.541Z,31.04
2023-04-08T11:05:44.547Z,32.35
2023-04-08T11:06:44.608Z,39.76
2023-04-08T11:07:44.569Z,35.25
2023-04-08T11:08:44.606Z,38.92
2023-04-08T11:09:44.550Z,38.22
2023-04-08T11:10:44.575Z,44.82
2023-04-08T11:11:44.547Z,32.79
2023-04-08T11:12:44.551Z,26.89
2023-04-08T11:13:52.567Z,36.49
2023-04-08T11:14:46.474Z,38.81
2023-04-08T11:15:44.613Z,34.58
2023-04-08T11:16:44.537Z,38.02
2023-04-08T11:17:44.564Z,34.84
2023-04-08T11:18:44.543Z,38.13
2023-04-08T11:19:44.567Z,40.85
2023-04-08T11:20:44.521Z,44.50
2023-04-08T11:21:44.521Z,37.92
2023-04-08T11:22:44.530Z,33.93
2023-04-08T11:23:44.499Z,34.79
2023-04-08T11:24:44.505Z,33.10
2023-04-08T11:25:44.485Z,40.24
2023-04-08T11:26:44.512Z,44.14
2023-04-08T11:27:44.501Z,40.81
2023-04-08T11:28:44.477Z,41.40
2023-04-08T11:29:44.478Z,33.88
2023-04-08T11:30:44.571Z,44.05
2023-04-08T11:31:44.675Z,42.44
2023-04-08T11:32:44.514Z,42.06
2023-04-08T11:33:44.445Z,46.29
2023-04-08T11:34:44.489Z,38.80
2023-04-08T11:35:44.504Z,38.84
2023-04-08T11:36:44.463Z,39.32
2023-04-08T11:37:44.468Z,41.54
2023-04-08T11:38:44.459Z,43.22
2023-04-08T11:39:44.438Z,45.89
2023-04-08T11:40:44.425Z,49.82
2023-04-08T11:41:44.425Z,50.18
2023-04-08T11:42:45.996Z,47.12
2023-04-08T11:43:44.627Z,50.14
2023-04-08T11:44:44.623Z,55.16
2023-04-08T11:45:44.634Z,52.81
2023-04-08T11:46:44.701Z,52.50
2023-04-08T11:47:44.718Z,55.25
2023-04-08T11:48:44.669Z,54.48
2023-04-08T11:49:44.682Z,56.37
2023-04-08T11:50:44.698Z,55.12
2023-04-08T11:51:44.696Z,55.23
2023-04-08T11:52:44.706Z,55.51
2023-04-08T11:53:44.699Z,55.56
2023-04-08T11:54:44.708Z,58.53
2023-04-08T11:55:44.708Z,57.01
2023-04-08T11:56:44.713Z,60.10
2023-04-08T11:57:44.724Z,62.42
2023-04-08T11:58:44.721Z,60.90
2023-04-08T11:59:44.725Z,59.33
2023-04-08T12:00:44.731Z,56.81
2023-04-08T12:01:44.742Z,53.52
2023-04-08T12:02:44.780Z,69.33
2023-04-08T12:03:44.813Z,57.13
2023-04-08T12:04:44.748Z,69.25
2023-04-08T12:05:44.745Z,65.78
2023-04-08T12:06:44.746Z,64.90
2023-04-08T12:07:44.750Z,70.47
2023-04-08T12:08:44.750Z,67.35
2023-04-08T12:09:44.754Z,75.26
2023-04-08T12:10:44.769Z,74.43
2023-04-08T12:11:44.812Z,68.16
2023-04-08T12:12:44.779Z,72.87
2023-04-08T12:13:44.803Z,72.77
2023-04-08T12:14:44.789Z,75.87
2023-04-08T12:15:44.822Z,63.32
2023-04-08T12:16:44.787Z,63.76
2023-04-08T12:17:44.805Z,64.37
2023-04-08T12:18:44.790Z,67.48
2023-04-08T12:19:44.767Z,68.94
2023-04-08T12:20:44.767Z,73.59
2023-04-08T12:21:44.804Z,72.14
2023-04-08T12:22:44.772Z,71.84
2023-04-08T12:23:44.770Z,70.62
2023-04-08T12:24:44.773Z,76.64
2023-04-08T12:25:44.774Z,75.21
2023-04-08T12:26:44.785Z,77.56
2023-04-08T12:27:44.785Z,68.01
2023-04-08T12:28:44.785Z,69.10
2023-04-08T12:29:44.767Z,76.64
2023-04-08T12:30:44.769Z,72.71
2023-04-08T12:31:44.830Z,70.79
2023-04-08T12:32:44.810Z,75.20
2023-04-08T12:33:44.754Z,76.34
2023-04-08T12:34:44.761Z,75.72
2023-04-08T12:35:44.803Z,78.33
2023-04-08T12:36:44.766Z,72.34
2023-04-08T12:37:44.790Z,82.39
2023-04-08T12:38:44.773Z,75.40
2023-04-08T12:39:44.765Z,75.72
2023-04-08T12:40:44.795Z,75.60
2023-04-08T12:41:44.770Z,75.75
2023-04-08T12:42:44.800Z,76.91
2023-04-08T12:43:44.781Z,79.77
2023-04-08T12:44:44.800Z,74.77
2023-04-08T12:45:44.776Z,77.10
2023-04-08T12:46:44.871Z,75.27
2023-04-08T12:47:44.860Z,75.44
2023-04-08T12:48:44.802Z,75.73
2023-04-08T12:50:44.789Z,75.63